sensor_id;sensor_type;location;lat;lon;timestamp;pressure;altitude;pressure_sealevel;temperature;humidity
69219;BME280;56232;53.384;-2.732;2024-03-07T00:00:20;101949.46;;;4.43;41.12
69219;BME280;56232;53.384;-2.732;2024-03-07T00:02:40;101949.59;;;4.48;41.09
69219;BME280;56232;53.384;-2.732;2024-03-07T00:05:06;101946.80;;;4.88;40.95
69219;BME280;56232;53.384;-2.732;2024-03-07T00:07:31;101945.42;;;4.39;41.06
69219;BME280;56232;53.384;-2.732;2024-03-07T00:09:57;101945.34;;;4.45;41.05
69219;BME280;56232;53.384;-2.732;2024-03-07T00:12:23;101948.32;;;4.56;40.88
69219;BME280;56232;53.384;-2.732;2024-03-07T00:14:48;101945.55;;;4.77;40.79
69219;BME280;56232;53.384;-2.732;2024-03-07T00:17:13;101943.76;;;4.77;40.86
69219;BME280;56232;53.384;-2.732;2024-03-07T00:19:39;101941.65;;;4.78;40.68
69219;BME280;56232;53.384;-2.732;2024-03-07T00:22:04;101938.81;;;4.76;40.83
69219;BME280;56232;53.384;-2.732;2024-03-07T00:24:30;101943.10;;;4.63;40.88
69219;BME280;56232;53.384;-2.732;2024-03-07T00:26:55;101942.01;;;4.49;41.21
69219;BME280;56232;53.384;-2.732;2024-03-07T00:29:21;101941.03;;;5.03;40.99
69219;BME280;56232;53.384;-2.732;2024-03-07T00:31:47;101939.87;;;5.33;41.00
69219;BME280;56232;53.384;-2.732;2024-03-07T00:34:13;101944.04;;;4.79;40.85
69219;BME280;56232;53.384;-2.732;2024-03-07T00:36:37;101945.52;;;4.22;40.96
69219;BME280;56232;53.384;-2.732;2024-03-07T00:39:03;101943.41;;;4.62;40.93
69219;BME280;56232;53.384;-2.732;2024-03-07T00:41:28;101943.70;;;4.67;40.92
69219;BME280;56232;53.384;-2.732;2024-03-07T00:43:54;101943.60;;;4.72;40.67
69219;BME280;56232;53.384;-2.732;2024-03-07T00:46:19;101943.98;;;4.16;40.78
69219;BME280;56232;53.384;-2.732;2024-03-07T00:48:44;101946.66;;;4.68;40.77
69219;BME280;56232;53.384;-2.732;2024-03-07T00:51:10;101946.69;;;4.21;40.68
69219;BME280;56232;53.384;-2.732;2024-03-07T00:53:35;101946.74;;;4.27;40.63
69219;BME280;56232;53.384;-2.732;2024-03-07T00:56:00;101951.02;;;4.16;40.86
69219;BME280;56232;53.384;-2.732;2024-03-07T00:58:26;101951.94;;;4.13;40.83
69219;BME280;56232;53.384;-2.732;2024-03-07T01:00:51;101948.58;;;4.42;40.68
69219;BME280;56232;53.384;-2.732;2024-03-07T01:03:16;101945.99;;;3.84;40.68
69219;BME280;56232;53.384;-2.732;2024-03-07T01:05:42;101947.74;;;4.23;40.75
69219;BME280;56232;53.384;-2.732;2024-03-07T01:08:07;101945.14;;;3.72;40.73
69219;BME280;56232;53.384;-2.732;2024-03-07T01:10:33;101944.16;;;3.62;41.03
69219;BME280;56232;53.384;-2.732;2024-03-07T01:12:58;101945.96;;;4.08;40.90
69219;BME280;56232;53.384;-2.732;2024-03-07T01:15:24;101946.92;;;4.11;40.81
69219;BME280;56232;53.384;-2.732;2024-03-07T01:17:50;101951.74;;;4.57;40.73
69219;BME280;56232;53.384;-2.732;2024-03-07T01:20:15;101952.50;;;3.94;40.74
69219;BME280;56232;53.384;-2.732;2024-03-07T01:22:40;101953.37;;;3.44;40.73
69219;BME280;56232;53.384;-2.732;2024-03-07T01:25:06;101955.90;;;3.87;40.95
69219;BME280;56232;53.384;-2.732;2024-03-07T01:27:31;101954.92;;;4.29;40.97
69219;BME280;56232;53.384;-2.732;2024-03-07T01:29:56;101958.19;;;4.16;41.12
69219;BME280;56232;53.384;-2.732;2024-03-07T01:32:22;101953.31;;;4.17;41.03
69219;BME280;56232;53.384;-2.732;2024-03-07T01:34:48;101947.57;;;4.28;40.64
69219;BME280;56232;53.384;-2.732;2024-03-07T01:37:12;101948.81;;;4.34;40.49
69219;BME280;56232;53.384;-2.732;2024-03-07T01:39:37;101949.52;;;3.68;40.70
69219;BME280;56232;53.384;-2.732;2024-03-07T01:42:03;101946.76;;;4.05;40.84
69219;BME280;56232;53.384;-2.732;2024-03-07T01:44:29;101944.53;;;3.56;40.74
69219;BME280;56232;53.384;-2.732;2024-03-07T01:46:55;101940.80;;;3.63;40.59
69219;BME280;56232;53.384;-2.732;2024-03-07T01:49:20;101941.87;;;4.15;40.66
69219;BME280;56232;53.384;-2.732;2024-03-07T01:51:45;101940.43;;;4.19;40.87
69219;BME280;56232;53.384;-2.732;2024-03-07T01:54:11;101940.65;;;4.06;40.57
69219;BME280;56232;53.384;-2.732;2024-03-07T01:56:38;101941.77;;;3.88;41.11
69219;BME280;56232;53.384;-2.732;2024-03-07T01:59:03;101941.78;;;3.86;41.10
69219;BME280;56232;53.384;-2.732;2024-03-07T02:01:28;101941.07;;;3.86;41.00
69219;BME280;56232;53.384;-2.732;2024-03-07T02:03:54;101938.93;;;3.84;41.22
69219;BME280;56232;53.384;-2.732;2024-03-07T02:06:19;101940.16;;;3.62;41.33
69219;BME280;56232;53.384;-2.732;2024-03-07T02:08:45;101935.73;;;3.59;41.43
69219;BME280;56232;53.384;-2.732;2024-03-07T02:11:10;101936.20;;;3.59;41.45
69219;BME280;56232;53.384;-2.732;2024-03-07T02:13:36;101937.22;;;3.61;41.39
69219;BME280;56232;53.384;-2.732;2024-03-07T02:16:01;101937.45;;;3.53;41.40
69219;BME280;56232;53.384;-2.732;2024-03-07T02:18:27;101940.23;;;3.00;41.21
69219;BME280;56232;53.384;-2.732;2024-03-07T02:20:52;101937.37;;;3.45;41.49
69219;BME280;56232;53.384;-2.732;2024-03-07T02:23:18;101934.89;;;3.98;41.58
69219;BME280;56232;53.384;-2.732;2024-03-07T02:25:43;101931.04;;;3.40;41.59
69219;BME280;56232;53.384;-2.732;2024-03-07T02:28:09;101932.59;;;3.45;41.35
69219;BME280;56232;53.384;-2.732;2024-03-07T02:30:34;101931.11;;;3.32;41.44
69219;BME280;56232;53.384;-2.732;2024-03-07T02:33:00;101932.09;;;3.20;41.48
69219;BME280;56232;53.384;-2.732;2024-03-07T02:35:25;101930.32;;;3.23;41.30
69219;BME280;56232;53.384;-2.732;2024-03-07T02:37:50;101931.41;;;3.81;41.14
69219;BME280;56232;53.384;-2.732;2024-03-07T02:40:15;101932.59;;;3.17;41.21
69219;BME280;56232;53.384;-2.732;2024-03-07T02:42:41;101935.13;;;3.25;41.17
69219;BME280;56232;53.384;-2.732;2024-03-07T02:45:07;101932.39;;;3.28;41.35
69219;BME280;56232;53.384;-2.732;2024-03-07T02:47:31;101936.61;;;3.33;41.56
69219;BME280;56232;53.384;-2.732;2024-03-07T02:49:57;101936.73;;;3.31;41.14
69219;BME280;56232;53.384;-2.732;2024-03-07T02:52:22;101936.13;;;3.34;41.08
69219;BME280;56232;53.384;-2.732;2024-03-07T02:54:48;101938.11;;;3.91;41.38
69219;BME280;56232;53.384;-2.732;2024-03-07T02:57:13;101939.42;;;3.42;41.32
69219;BME280;56232;53.384;-2.732;2024-03-07T02:59:38;101934.93;;;3.32;41.42
69219;BME280;56232;53.384;-2.732;2024-03-07T03:02:03;101935.29;;;3.38;41.55
69219;BME280;56232;53.384;-2.732;2024-03-07T03:04:29;101936.59;;;4.44;41.51
69219;BME280;56232;53.384;-2.732;2024-03-07T03:06:54;101934.49;;;3.35;41.48
69219;BME280;56232;53.384;-2.732;2024-03-07T03:09:20;101930.80;;;3.59;41.26
69219;BME280;56232;53.384;-2.732;2024-03-07T03:11:45;101928.01;;;3.56;40.94
69219;BME280;56232;53.384;-2.732;2024-03-07T03:14:11;101926.29;;;3.73;40.90
69219;BME280;56232;53.384;-2.732;2024-03-07T03:16:36;101923.09;;;3.79;40.64
69219;BME280;56232;53.384;-2.732;2024-03-07T03:19:01;101924.32;;;3.73;40.79
69219;BME280;56232;53.384;-2.732;2024-03-07T03:21:27;101923.10;;;3.81;40.80
69219;BME280;56232;53.384;-2.732;2024-03-07T03:23:53;101920.52;;;3.33;40.81
69219;BME280;56232;53.384;-2.732;2024-03-07T03:26:18;101921.08;;;3.92;40.89
69219;BME280;56232;53.384;-2.732;2024-03-07T03:28:43;101921.01;;;4.04;40.93
69219;BME280;56232;53.384;-2.732;2024-03-07T03:31:08;101922.29;;;4.03;40.94
69219;BME280;56232;53.384;-2.732;2024-03-07T03:33:34;101918.62;;;4.08;40.78
69219;BME280;56232;53.384;-2.732;2024-03-07T03:35:59;101919.08;;;4.25;40.87
69219;BME280;56232;53.384;-2.732;2024-03-07T03:38:25;101921.08;;;4.25;40.95
69219;BME280;56232;53.384;-2.732;2024-03-07T03:40:50;101923.48;;;3.65;40.97
69219;BME280;56232;53.384;-2.732;2024-03-07T03:43:16;101921.72;;;3.73;41.13
69219;BME280;56232;53.384;-2.732;2024-03-07T03:45:41;101926.07;;;4.06;41.35
69219;BME280;56232;53.384;-2.732;2024-03-07T03:48:06;101924.78;;;3.97;41.58
69219;BME280;56232;53.384;-2.732;2024-03-07T03:50:32;101922.25;;;3.90;41.53
69219;BME280;56232;53.384;-2.732;2024-03-07T03:52:57;101922.45;;;3.70;41.29
69219;BME280;56232;53.384;-2.732;2024-03-07T03:55:23;101923.34;;;3.52;41.54
69219;BME280;56232;53.384;-2.732;2024-03-07T03:57:49;101920.66;;;3.30;41.80
69219;BME280;56232;53.384;-2.732;2024-03-07T04:00:14;101920.48;;;3.11;41.95
69219;BME280;56232;53.384;-2.732;2024-03-07T04:02:40;101920.58;;;3.05;42.00
69219;BME280;56232;53.384;-2.732;2024-03-07T04:05:05;101919.09;;;2.91;41.77
69219;BME280;56232;53.384;-2.732;2024-03-07T04:07:30;101919.57;;;2.92;41.83
69219;BME280;56232;53.384;-2.732;2024-03-07T04:09:55;101922.22;;;2.93;41.40
69219;BME280;56232;53.384;-2.732;2024-03-07T04:12:21;101920.46;;;3.99;41.06
69219;BME280;56232;53.384;-2.732;2024-03-07T04:14:47;101922.80;;;2.78;41.38
69219;BME280;56232;53.384;-2.732;2024-03-07T04:17:12;101923.97;;;2.75;41.36
69219;BME280;56232;53.384;-2.732;2024-03-07T04:19:37;101923.93;;;2.66;41.60
69219;BME280;56232;53.384;-2.732;2024-03-07T04:22:02;101920.61;;;3.16;41.45
69219;BME280;56232;53.384;-2.732;2024-03-07T04:24:27;101920.76;;;2.39;41.69
69219;BME280;56232;53.384;-2.732;2024-03-07T04:26:52;101923.34;;;2.30;41.88
69219;BME280;56232;53.384;-2.732;2024-03-07T04:29:18;101922.00;;;2.20;41.80
69219;BME280;56232;53.384;-2.732;2024-03-07T04:31:43;101924.70;;;3.13;41.87
69219;BME280;56232;53.384;-2.732;2024-03-07T04:34:09;101929.41;;;2.69;41.69
69219;BME280;56232;53.384;-2.732;2024-03-07T04:36:35;101931.05;;;3.23;41.76
69219;BME280;56232;53.384;-2.732;2024-03-07T04:39:00;101932.01;;;3.10;41.91
69219;BME280;56232;53.384;-2.732;2024-03-07T04:41:27;101932.53;;;3.09;41.90
69219;BME280;56232;53.384;-2.732;2024-03-07T04:43:51;101936.00;;;3.21;41.87
69219;BME280;56232;53.384;-2.732;2024-03-07T04:46:17;101934.54;;;3.14;41.92
69219;BME280;56232;53.384;-2.732;2024-03-07T04:48:43;101937.79;;;3.20;41.92
69219;BME280;56232;53.384;-2.732;2024-03-07T04:51:08;101938.98;;;2.87;41.75
69219;BME280;56232;53.384;-2.732;2024-03-07T04:53:34;101942.28;;;3.41;41.85
69219;BME280;56232;53.384;-2.732;2024-03-07T04:55:59;101943.58;;;2.27;41.88
69219;BME280;56232;53.384;-2.732;2024-03-07T04:58:25;101941.90;;;2.98;41.52
69219;BME280;56232;53.384;-2.732;2024-03-07T05:00:50;101940.16;;;2.32;41.26
69219;BME280;56232;53.384;-2.732;2024-03-07T05:03:15;101943.28;;;2.83;41.43
69219;BME280;56232;53.384;-2.732;2024-03-07T05:05:41;101940.75;;;2.78;41.47
69219;BME280;56232;53.384;-2.732;2024-03-07T05:08:07;101942.34;;;2.13;41.42
69219;BME280;56232;53.384;-2.732;2024-03-07T05:10:32;101943.50;;;2.55;41.58
69219;BME280;56232;53.384;-2.732;2024-03-07T05:12:58;101940.53;;;2.45;41.82
69219;BME280;56232;53.384;-2.732;2024-03-07T05:15:23;101938.67;;;2.52;41.73
69219;BME280;56232;53.384;-2.732;2024-03-07T05:17:50;101945.21;;;3.03;41.64
69219;BME280;56232;53.384;-2.732;2024-03-07T05:20:15;101944.27;;;1.76;41.74
69219;BME280;56232;53.384;-2.732;2024-03-07T05:22:41;101945.72;;;2.86;41.90
69219;BME280;56232;53.384;-2.732;2024-03-07T05:25:06;101947.62;;;2.78;41.81
69219;BME280;56232;53.384;-2.732;2024-03-07T05:27:32;101945.42;;;2.71;42.00
69219;BME280;56232;53.384;-2.732;2024-03-07T05:29:57;101947.94;;;2.55;42.28
69219;BME280;56232;53.384;-2.732;2024-03-07T05:32:24;101947.71;;;2.54;42.04
69219;BME280;56232;53.384;-2.732;2024-03-07T05:34:50;101950.39;;;2.51;42.29
69219;BME280;56232;53.384;-2.732;2024-03-07T05:37:14;101948.66;;;2.59;42.11
69219;BME280;56232;53.384;-2.732;2024-03-07T05:39:40;101949.25;;;2.43;41.98
69219;BME280;56232;53.384;-2.732;2024-03-07T05:42:06;101948.97;;;2.37;42.11
69219;BME280;56232;53.384;-2.732;2024-03-07T05:44:31;101949.02;;;2.43;42.11
69219;BME280;56232;53.384;-2.732;2024-03-07T05:46:57;101946.46;;;2.48;42.12
69219;BME280;56232;53.384;-2.732;2024-03-07T05:49:22;101949.10;;;2.47;42.00
69219;BME280;56232;53.384;-2.732;2024-03-07T05:51:49;101951.79;;;2.54;41.91
69219;BME280;56232;53.384;-2.732;2024-03-07T05:54:14;101949.79;;;2.47;41.87
69219;BME280;56232;53.384;-2.732;2024-03-07T05:56:40;101948.97;;;2.48;41.52
69219;BME280;56232;53.384;-2.732;2024-03-07T05:59:04;101951.67;;;2.43;41.94
69219;BME280;56232;53.384;-2.732;2024-03-07T06:01:29;101954.51;;;2.51;41.98
69219;BME280;56232;53.384;-2.732;2024-03-07T06:03:54;101951.07;;;2.33;42.53
69219;BME280;56232;53.384;-2.732;2024-03-07T06:06:20;101950.65;;;2.35;42.25
69219;BME280;56232;53.384;-2.732;2024-03-07T06:08:45;101949.40;;;2.40;42.19
69219;BME280;56232;53.384;-2.732;2024-03-07T06:11:11;101956.37;;;2.42;42.04
69219;BME280;56232;53.384;-2.732;2024-03-07T06:13:36;101957.94;;;2.30;42.69
69219;BME280;56232;53.384;-2.732;2024-03-07T06:16:02;101958.66;;;2.19;42.64
69219;BME280;56232;53.384;-2.732;2024-03-07T06:18:27;101959.70;;;2.42;42.18
69219;BME280;56232;53.384;-2.732;2024-03-07T06:20:53;101956.82;;;2.53;42.00
69219;BME280;56232;53.384;-2.732;2024-03-07T06:23:18;101956.93;;;2.42;42.04
69219;BME280;56232;53.384;-2.732;2024-03-07T06:25:44;101959.55;;;2.43;41.97
69219;BME280;56232;53.384;-2.732;2024-03-07T06:28:10;101963.01;;;2.41;42.07
69219;BME280;56232;53.384;-2.732;2024-03-07T06:30:35;101963.82;;;2.50;42.31
69219;BME280;56232;53.384;-2.732;2024-03-07T06:33:00;101961.74;;;2.56;42.11
69219;BME280;56232;53.384;-2.732;2024-03-07T06:35:26;101964.28;;;2.67;42.06
69219;BME280;56232;53.384;-2.732;2024-03-07T06:37:51;101959.81;;;2.63;42.10
69219;BME280;56232;53.384;-2.732;2024-03-07T06:40:16;101958.37;;;2.62;42.13
69219;BME280;56232;53.384;-2.732;2024-03-07T06:42:42;101961.81;;;2.48;42.45
69219;BME280;56232;53.384;-2.732;2024-03-07T06:45:08;101965.26;;;2.66;42.67
69219;BME280;56232;53.384;-2.732;2024-03-07T06:47:33;101959.59;;;2.34;42.47
69219;BME280;56232;53.384;-2.732;2024-03-07T06:49:59;101961.90;;;2.62;42.24
69219;BME280;56232;53.384;-2.732;2024-03-07T06:52:25;101964.64;;;2.75;42.23
69219;BME280;56232;53.384;-2.732;2024-03-07T06:54:50;101963.74;;;2.35;42.46
69219;BME280;56232;53.384;-2.732;2024-03-07T06:57:17;101966.29;;;3.01;42.21
69219;BME280;56232;53.384;-2.732;2024-03-07T06:59:40;101968.59;;;2.58;41.87
69219;BME280;56232;53.384;-2.732;2024-03-07T07:02:05;101970.21;;;3.21;41.97
69219;BME280;56232;53.384;-2.732;2024-03-07T07:04:31;101971.86;;;3.31;41.71
69219;BME280;56232;53.384;-2.732;2024-03-07T07:06:56;101972.70;;;3.31;42.12
69219;BME280;56232;53.384;-2.732;2024-03-07T07:09:21;101974.43;;;2.86;41.79
69219;BME280;56232;53.384;-2.732;2024-03-07T07:11:48;101977.92;;;3.30;41.96
69219;BME280;56232;53.384;-2.732;2024-03-07T07:14:12;101981.86;;;3.33;42.25
69219;BME280;56232;53.384;-2.732;2024-03-07T07:16:37;101984.93;;;2.49;41.77
69219;BME280;56232;53.384;-2.732;2024-03-07T07:19:03;101986.80;;;2.76;41.76
69219;BME280;56232;53.384;-2.732;2024-03-07T07:21:28;101989.57;;;3.08;41.49
69219;BME280;56232;53.384;-2.732;2024-03-07T07:23:54;101992.74;;;3.65;41.68
69219;BME280;56232;53.384;-2.732;2024-03-07T07:26:19;101992.81;;;3.08;41.71
69219;BME280;56232;53.384;-2.732;2024-03-07T07:28:45;101991.63;;;3.23;41.59
69219;BME280;56232;53.384;-2.732;2024-03-07T07:31:11;101988.18;;;3.41;41.08
69219;BME280;56232;53.384;-2.732;2024-03-07T07:33:36;101988.54;;;3.70;41.10
69219;BME280;56232;53.384;-2.732;2024-03-07T07:36:02;101992.23;;;3.92;40.80
69219;BME280;56232;53.384;-2.732;2024-03-07T07:38:27;101993.91;;;3.93;40.07
69219;BME280;56232;53.384;-2.732;2024-03-07T07:40:52;101993.29;;;3.89;40.51
69219;BME280;56232;53.384;-2.732;2024-03-07T07:43:17;101994.51;;;3.95;40.22
69219;BME280;56232;53.384;-2.732;2024-03-07T07:45:43;101995.11;;;4.13;40.85
69219;BME280;56232;53.384;-2.732;2024-03-07T07:48:09;101992.58;;;3.23;40.98
69219;BME280;56232;53.384;-2.732;2024-03-07T07:50:34;101990.15;;;4.27;40.86
69219;BME280;56232;53.384;-2.732;2024-03-07T07:53:00;101989.60;;;4.53;40.14
69219;BME280;56232;53.384;-2.732;2024-03-07T07:55:26;101989.44;;;4.92;40.38
69219;BME280;56232;53.384;-2.732;2024-03-07T07:57:54;101988.41;;;5.59;40.27
69219;BME280;56232;53.384;-2.732;2024-03-07T08:00:17;101989.67;;;6.09;40.00
69219;BME280;56232;53.384;-2.732;2024-03-07T08:02:41;101991.52;;;7.15;40.21
69219;BME280;56232;53.384;-2.732;2024-03-07T08:05:07;101988.48;;;6.39;39.50
69219;BME280;56232;53.384;-2.732;2024-03-07T08:07:32;101989.12;;;7.44;38.66
69219;BME280;56232;53.384;-2.732;2024-03-07T08:09:58;101983.40;;;8.31;36.95
69219;BME280;56232;53.384;-2.732;2024-03-07T08:12:23;101981.79;;;7.71;37.41
69219;BME280;56232;53.384;-2.732;2024-03-07T08:14:49;101984.17;;;7.02;37.60
69219;BME280;56232;53.384;-2.732;2024-03-07T08:17:14;101979.99;;;7.03;38.27
69219;BME280;56232;53.384;-2.732;2024-03-07T08:19:39;101977.43;;;6.58;38.13
69219;BME280;56232;53.384;-2.732;2024-03-07T08:22:05;101973.81;;;6.34;38.24
69219;BME280;56232;53.384;-2.732;2024-03-07T08:24:30;101979.00;;;6.80;38.40
69219;BME280;56232;53.384;-2.732;2024-03-07T08:26:55;101974.92;;;8.80;37.10
69219;BME280;56232;53.384;-2.732;2024-03-07T08:29:21;101973.87;;;9.47;35.78
69219;BME280;56232;53.384;-2.732;2024-03-07T08:31:46;101970.16;;;10.13;35.53
69219;BME280;56232;53.384;-2.732;2024-03-07T08:34:11;101972.11;;;11.83;33.85
69219;BME280;56232;53.384;-2.732;2024-03-07T08:36:37;101973.32;;;12.14;32.77
69219;BME280;56232;53.384;-2.732;2024-03-07T08:39:02;101973.46;;;12.33;30.85
69219;BME280;56232;53.384;-2.732;2024-03-07T08:41:28;101974.50;;;13.16;30.48
69219;BME280;56232;53.384;-2.732;2024-03-07T08:43:53;101965.98;;;12.74;30.30
69219;BME280;56232;53.384;-2.732;2024-03-07T08:46:19;101966.27;;;13.44;29.78
69219;BME280;56232;53.384;-2.732;2024-03-07T08:48:44;101966.53;;;12.55;29.57
69219;BME280;56232;53.384;-2.732;2024-03-07T08:51:09;101961.36;;;13.25;29.69
69219;BME280;56232;53.384;-2.732;2024-03-07T08:53:35;101956.90;;;14.20;29.34
69219;BME280;56232;53.384;-2.732;2024-03-07T08:56:00;101963.36;;;13.44;28.66
69219;BME280;56232;53.384;-2.732;2024-03-07T08:58:25;101962.07;;;13.46;28.91
69219;BME280;56232;53.384;-2.732;2024-03-07T09:00:51;101964.13;;;13.74;28.76
69219;BME280;56232;53.384;-2.732;2024-03-07T09:03:16;101963.71;;;14.55;28.79
69219;BME280;56232;53.384;-2.732;2024-03-07T09:05:41;101961.74;;;14.75;28.40
69219;BME280;56232;53.384;-2.732;2024-03-07T09:08:07;101958.77;;;15.14;28.25
69219;BME280;56232;53.384;-2.732;2024-03-07T09:10:33;101956.51;;;14.81;27.71
69219;BME280;56232;53.384;-2.732;2024-03-07T09:12:58;101953.83;;;15.07;27.52
69219;BME280;56232;53.384;-2.732;2024-03-07T09:15:24;101963.65;;;13.35;28.89
69219;BME280;56232;53.384;-2.732;2024-03-07T09:17:50;101954.02;;;12.25;29.81
69219;BME280;56232;53.384;-2.732;2024-03-07T09:20:14;101955.06;;;11.51;30.88
69219;BME280;56232;53.384;-2.732;2024-03-07T09:22:39;101947.96;;;11.40;31.28
69219;BME280;56232;53.384;-2.732;2024-03-07T09:25:06;101948.21;;;10.98;31.84
69219;BME280;56232;53.384;-2.732;2024-03-07T09:27:30;101941.77;;;10.15;32.27
69219;BME280;56232;53.384;-2.732;2024-03-07T09:29:55;101941.70;;;10.06;32.59
69219;BME280;56232;53.384;-2.732;2024-03-07T09:32:20;101937.94;;;10.41;33.41
69219;BME280;56232;53.384;-2.732;2024-03-07T09:34:46;101943.20;;;10.14;33.76
69219;BME280;56232;53.384;-2.732;2024-03-07T09:37:11;101939.84;;;10.27;34.03
69219;BME280;56232;53.384;-2.732;2024-03-07T09:39:36;101936.18;;;10.80;33.37
69219;BME280;56232;53.384;-2.732;2024-03-07T09:42:01;101936.78;;;10.87;32.22
69219;BME280;56232;53.384;-2.732;2024-03-07T09:44:28;101937.17;;;11.93;32.03
69219;BME280;56232;53.384;-2.732;2024-03-07T09:46:54;101927.69;;;12.77;31.15
69219;BME280;56232;53.384;-2.732;2024-03-07T09:49:18;101931.20;;;13.23;29.98
69219;BME280;56232;53.384;-2.732;2024-03-07T09:51:44;101931.17;;;12.63;30.03
69219;BME280;56232;53.384;-2.732;2024-03-07T09:54:09;101931.78;;;12.69;29.73
69219;BME280;56232;53.384;-2.732;2024-03-07T09:56:34;101933.73;;;13.40;30.54
69219;BME280;56232;53.384;-2.732;2024-03-07T09:59:00;101928.73;;;13.72;29.69
69219;BME280;56232;53.384;-2.732;2024-03-07T10:01:26;101929.47;;;13.84;29.38
69219;BME280;56232;53.384;-2.732;2024-03-07T10:03:57;101930.60;;;13.37;29.99
69219;BME280;56232;53.384;-2.732;2024-03-07T10:06:16;101929.94;;;12.90;30.49
69219;BME280;56232;53.384;-2.732;2024-03-07T10:08:42;101930.06;;;13.40;30.31
69219;BME280;56232;53.384;-2.732;2024-03-07T10:11:07;101927.82;;;13.68;29.61
69219;BME280;56232;53.384;-2.732;2024-03-07T10:13:33;101926.77;;;12.62;29.85
69219;BME280;56232;53.384;-2.732;2024-03-07T10:15:58;101923.79;;;13.43;29.77
69219;BME280;56232;53.384;-2.732;2024-03-07T10:18:23;101920.70;;;13.15;29.88
69219;BME280;56232;53.384;-2.732;2024-03-07T10:20:53;101919.46;;;13.40;29.52
69219;BME280;56232;53.384;-2.732;2024-03-07T10:23:18;101916.37;;;13.85;29.54
69219;BME280;56232;53.384;-2.732;2024-03-07T10:25:40;101914.94;;;12.89;29.22
69219;BME280;56232;53.384;-2.732;2024-03-07T10:28:06;101913.90;;;12.82;30.08
69219;BME280;56232;53.384;-2.732;2024-03-07T10:30:39;101914.08;;;12.90;30.32
69219;BME280;56232;53.384;-2.732;2024-03-07T10:32:58;101912.07;;;12.63;31.88
69219;BME280;56232;53.384;-2.732;2024-03-07T10:35:23;101907.38;;;12.14;31.99
69219;BME280;56232;53.384;-2.732;2024-03-07T10:37:48;101905.63;;;11.82;31.46
69219;BME280;56232;53.384;-2.732;2024-03-07T10:40:13;101905.52;;;11.38;32.91
69219;BME280;56232;53.384;-2.732;2024-03-07T10:42:39;101903.50;;;10.89;33.55
69219;BME280;56232;53.384;-2.732;2024-03-07T10:45:04;101906.54;;;11.27;33.48
69219;BME280;56232;53.384;-2.732;2024-03-07T10:47:29;101905.06;;;10.52;34.37
69219;BME280;56232;53.384;-2.732;2024-03-07T10:50:02;101901.42;;;10.06;34.58
69219;BME280;56232;53.384;-2.732;2024-03-07T10:52:28;101899.44;;;10.66;34.40
69219;BME280;56232;53.384;-2.732;2024-03-07T10:55:04;101900.12;;;10.62;34.49
69219;BME280;56232;53.384;-2.732;2024-03-07T10:57:18;101891.61;;;10.53;34.20
69219;BME280;56232;53.384;-2.732;2024-03-07T10:59:38;101894.09;;;10.68;34.30
69219;BME280;56232;53.384;-2.732;2024-03-07T11:02:09;101893.15;;;10.91;33.88
69219;BME280;56232;53.384;-2.732;2024-03-07T11:04:27;101890.00;;;11.22;33.87
69219;BME280;56232;53.384;-2.732;2024-03-07T11:06:52;101885.22;;;10.28;34.48
69219;BME280;56232;53.384;-2.732;2024-03-07T11:09:18;101889.51;;;10.84;34.57
69219;BME280;56232;53.384;-2.732;2024-03-07T11:11:43;101885.91;;;10.84;32.72
69219;BME280;56232;53.384;-2.732;2024-03-07T11:14:09;101879.83;;;11.20;33.60
69219;BME280;56232;53.384;-2.732;2024-03-07T11:16:34;101883.60;;;11.10;34.36
69219;BME280;56232;53.384;-2.732;2024-03-07T11:23:51;101869.05;;;11.06;35.38
69219;BME280;56232;53.384;-2.732;2024-03-07T11:26:16;101870.02;;;11.15;35.59
69219;BME280;56232;53.384;-2.732;2024-03-07T11:28:42;101866.65;;;11.21;35.30
69219;BME280;56232;53.384;-2.732;2024-03-07T11:31:09;101866.67;;;11.11;35.39
69219;BME280;56232;53.384;-2.732;2024-03-07T11:33:32;101863.36;;;10.71;34.75
69219;BME280;56232;53.384;-2.732;2024-03-07T11:35:58;101863.65;;;10.13;34.98
69219;BME280;56232;53.384;-2.732;2024-03-07T11:38:31;101861.43;;;10.99;35.15
69219;BME280;56232;53.384;-2.732;2024-03-07T11:40:51;101867.63;;;10.41;34.08
69219;BME280;56232;53.384;-2.732;2024-03-07T11:43:15;101864.96;;;10.07;36.10
69219;BME280;56232;53.384;-2.732;2024-03-07T11:45:40;101863.73;;;10.58;35.67
69219;BME280;56232;53.384;-2.732;2024-03-07T11:48:06;101859.80;;;10.20;36.05
69219;BME280;56232;53.384;-2.732;2024-03-07T11:50:31;101860.75;;;10.21;36.41
69219;BME280;56232;53.384;-2.732;2024-03-07T11:52:56;101862.74;;;10.07;35.59
69219;BME280;56232;53.384;-2.732;2024-03-07T11:55:22;101857.54;;;10.01;35.77
69219;BME280;56232;53.384;-2.732;2024-03-07T11:57:49;101852.48;;;10.08;36.88
69219;BME280;56232;53.384;-2.732;2024-03-07T12:00:14;101853.34;;;10.54;36.86
69219;BME280;56232;53.384;-2.732;2024-03-07T12:02:39;101851.98;;;10.79;36.42
69219;BME280;56232;53.384;-2.732;2024-03-07T12:05:04;101848.21;;;10.40;37.07
69219;BME280;56232;53.384;-2.732;2024-03-07T12:07:30;101854.29;;;10.75;35.34
69219;BME280;56232;53.384;-2.732;2024-03-07T12:09:55;101849.48;;;9.92;35.27
69219;BME280;56232;53.384;-2.732;2024-03-07T12:12:21;101848.98;;;9.58;36.50
69219;BME280;56232;53.384;-2.732;2024-03-07T12:14:46;101850.28;;;9.38;37.24
69219;BME280;56232;53.384;-2.732;2024-03-07T12:17:11;101849.54;;;10.75;37.86
69219;BME280;56232;53.384;-2.732;2024-03-07T12:19:36;101856.10;;;10.45;37.22
69219;BME280;56232;53.384;-2.732;2024-03-07T12:22:03;101843.36;;;10.50;35.13
69219;BME280;56232;53.384;-2.732;2024-03-07T12:24:27;101842.36;;;11.26;35.43
69219;BME280;56232;53.384;-2.732;2024-03-07T12:26:53;101845.93;;;11.31;35.43
69219;BME280;56232;53.384;-2.732;2024-03-07T12:29:18;101847.17;;;11.30;35.97
69219;BME280;56232;53.384;-2.732;2024-03-07T12:31:44;101836.38;;;11.21;35.22
69219;BME280;56232;53.384;-2.732;2024-03-07T12:34:09;101838.58;;;11.52;34.37
69219;BME280;56232;53.384;-2.732;2024-03-07T12:36:35;101837.94;;;10.54;35.03
69219;BME280;56232;53.384;-2.732;2024-03-07T12:39:00;101836.38;;;11.76;35.40
69219;BME280;56232;53.384;-2.732;2024-03-07T12:41:25;101839.30;;;11.46;34.75